Strona główna
METAR-TAF:

METAR-TAF

Lotnisko :

Tak, Tajlandia

Szerokość geograficzna: 16-53N, Długość geograficzna: 099-09E, wysokość: 121 m

METAR: brakujący

czas: 04:23 (21:23 UTC)

Prognoza

Raport powstał 4 godziny i 23 minut temu, godzina 17:00 UTC
Prognoza ważna od 30 godzina 18 UTC do 31 godzina 18 UTC
Wiatr 5 kt od zachodnio-południowy zachód
Widzialność 10 km lub więcej
Rozproszone chmury na wysokości 2500 ft
Przejściowo
od 31 godzina 06 UTC do 31 godzina 12 UTC
Wiatr 15 kt od zachodnio-południowy zachód w porywach dochodzący do 25 kt
Widzialność: 4000 m
Mało chmury na wysokości 2000 ft, Cumulonimbus.
Przerywane chmury na wysokości 2500 ft
burza, deszcz

TAF: VTPT 301700Z 3018/3118 24005KT 9999 SCT025 TEMPO 3106/3112 24015G25KT 4000 TSRA FEW020CB BKN025

Obserwacja i prognoza pogody dla ponad 4000 lotnisk (raport METAR i TAF).

Dostępne stacje oznaczono żółtymi i czerwonymi punktami na mapie.

Najedź kursorem aby zobaczyć nazwę stacji.

Kliknij aby zobaczyć obserwacje i prognozy pogody.

Aby zmienić mapę: kliknij na zielony przycisk z czarnym krzyżykiem, aby powiększyć; na zielony przycisk z myślnikiem, aby pomniejszyć; na zielone strzałki, aby przejść do map sąsiednich.


METAR-TAF: